createdAt,value
2023-04-02T00:00:20.720Z,20.91
2023-04-02T00:02:54.802Z,20.90
2023-04-02T00:05:26.125Z,20.92
2023-04-02T00:07:58.141Z,20.89
2023-04-02T00:10:33.664Z,20.90
2023-04-02T00:13:32.173Z,20.90
2023-04-02T00:16:00.452Z,20.88
2023-04-02T00:18:27.691Z,20.89
2023-04-02T00:21:12.063Z,20.88
2023-04-02T00:23:43.833Z,20.87
2023-04-02T00:26:28.875Z,20.86
2023-04-02T00:28:55.355Z,20.86
2023-04-02T00:31:22.415Z,20.86
2023-04-02T00:33:50.003Z,20.85
2023-04-02T00:36:20.223Z,20.84
2023-04-02T00:38:48.739Z,20.83
2023-04-02T00:41:22.534Z,20.84
2023-04-02T00:43:52.706Z,20.82
2023-04-02T00:46:30.064Z,20.82
2023-04-02T00:49:02.811Z,20.82
2023-04-02T00:52:00.687Z,20.84
2023-04-02T00:54:31.729Z,20.83
2023-04-02T00:56:58.914Z,20.81
2023-04-02T00:59:35.720Z,20.81
2023-04-02T01:02:18.575Z,20.80
2023-04-02T01:05:22.374Z,20.80
2023-04-02T01:08:12.949Z,20.79
2023-04-02T01:11:06.195Z,20.79
2023-04-02T01:14:20.934Z,20.76
2023-04-02T01:17:26.560Z,20.77
2023-04-02T01:20:11.410Z,20.77
2023-04-02T01:22:51.948Z,20.75
2023-04-02T01:25:30.175Z,20.76
2023-04-02T01:28:19.511Z,20.75
2023-04-02T01:30:52.514Z,20.76
2023-04-02T01:33:23.256Z,20.74
2023-04-02T01:36:05.873Z,20.75
2023-04-02T01:38:45.529Z,20.74
2023-04-02T01:41:32.152Z,20.73
2023-04-02T01:44:07.437Z,20.72
2023-04-02T01:46:38.376Z,20.71
2023-04-02T01:49:14.561Z,20.72
2023-04-02T01:51:46.501Z,20.71
2023-04-02T01:54:16.265Z,20.71
2023-04-02T01:56:44.567Z,20.70
2023-04-02T01:59:12.275Z,20.70
2023-04-02T02:01:45.148Z,20.70
2023-04-02T02:04:16.395Z,20.71
2023-04-02T02:06:43.982Z,20.71
2023-04-02T02:09:18.251Z,20.70
2023-04-02T02:11:44.847Z,20.69
2023-04-02T02:14:24.930Z,20.69
2023-04-02T02:16:56.587Z,20.68
2023-04-02T02:19:35.337Z,20.69
2023-04-02T02:22:12.183Z,20.69
2023-04-02T02:24:39.415Z,20.68
2023-04-02T02:27:26.537Z,20.68
2023-04-02T02:30:10.487Z,20.66
2023-04-02T02:32:51.691Z,20.65
2023-04-02T02:35:23.764Z,20.64
2023-04-02T02:38:02.424Z,20.64
2023-04-02T02:40:38.968Z,20.64
2023-04-02T02:43:11.979Z,20.63
2023-04-02T02:45:41.220Z,20.64
2023-04-02T02:48:13.719Z,20.61
2023-04-02T02:50:41.839Z,20.60
2023-04-02T02:53:23.470Z,20.62
2023-04-02T02:55:56.479Z,20.59
2023-04-02T02:58:32.713Z,20.57
2023-04-02T03:00:59.667Z,20.57
2023-04-02T03:03:32.740Z,20.56
2023-04-02T03:06:11.654Z,20.57
2023-04-02T03:08:41.669Z,20.56
2023-04-02T03:11:15.946Z,20.55
2023-04-02T03:13:47.323Z,20.56
2023-04-02T03:16:34.309Z,20.55
2023-04-02T03:19:12.948Z,20.55
2023-04-02T03:21:48.752Z,20.53
2023-04-02T03:24:23.140Z,20.54
2023-04-02T03:26:55.804Z,20.53
2023-04-02T03:29:33.059Z,20.53
2023-04-02T03:32:24.086Z,20.53
2023-04-02T03:34:57.036Z,20.52
2023-04-02T03:37:34.374Z,20.51
2023-04-02T03:40:17.405Z,20.51
2023-04-02T03:43:13.529Z,20.49
2023-04-02T03:45:44.107Z,20.49
2023-04-02T03:48:15.865Z,20.49
2023-04-02T03:51:08.474Z,20.49
2023-04-02T03:53:35.088Z,20.46
2023-04-02T03:56:02.619Z,20.46
2023-04-02T03:58:38.589Z,20.45
2023-04-02T04:01:09.321Z,20.45
2023-04-02T04:03:50.211Z,20.45
2023-04-02T04:06:24.023Z,20.47
2023-04-02T04:08:59.279Z,20.48
2023-04-02T04:11:31.883Z,20.50
2023-04-02T04:14:15.687Z,20.53
2023-04-02T04:16:42.896Z,20.57
2023-04-02T04:19:22.198Z,20.59
2023-04-02T04:21:48.782Z,20.63
2023-04-02T04:24:23.060Z,20.65
2023-04-02T04:27:04.284Z,20.67
2023-04-02T04:29:54.253Z,20.69
2023-04-02T04:32:38.953Z,20.72
2023-04-02T04:35:17.564Z,20.72
2023-04-02T04:37:49.608Z,20.71
2023-04-02T04:40:22.459Z,20.71
2023-04-02T04:42:53.020Z,20.72
2023-04-02T04:45:20.114Z,20.70
2023-04-02T04:48:01.606Z,20.71
2023-04-02T04:50:50.938Z,20.71
2023-04-02T04:53:22.451Z,20.71
2023-04-02T04:55:53.007Z,20.69
2023-04-02T04:58:43.239Z,20.69
2023-04-02T05:01:33.559Z,20.69
2023-04-02T05:04:06.697Z,20.69
2023-04-02T05:07:03.428Z,20.70
2023-04-02T05:09:56.114Z,20.71
2023-04-02T05:12:37.711Z,20.72
2023-04-02T05:15:29.545Z,20.73
2023-04-02T05:18:17.643Z,20.73
2023-04-02T05:20:51.375Z,20.73
2023-04-02T05:23:28.744Z,20.74
2023-04-02T05:25:58.903Z,20.74
2023-04-02T05:28:38.345Z,20.74
2023-04-02T05:31:17.535Z,20.74
2023-04-02T05:33:49.075Z,20.73
2023-04-02T05:36:22.634Z,20.73
2023-04-02T05:38:51.195Z,20.73
2023-04-02T05:41:38.349Z,20.72
2023-04-02T05:44:21.909Z,20.72
2023-04-02T05:47:06.126Z,20.73
2023-04-02T05:49:45.316Z,20.75
2023-04-02T05:52:34.114Z,20.75
2023-04-02T05:55:12.661Z,20.76
2023-04-02T05:57:54.834Z,20.77
2023-04-02T06:00:39.196Z,20.77
2023-04-02T06:03:39.217Z,20.76
2023-04-02T06:06:45.033Z,20.77
2023-04-02T06:09:37.794Z,20.76
2023-04-02T06:12:10.413Z,20.76
2023-04-02T06:14:37.256Z,20.76
2023-04-02T06:17:04.002Z,20.76
2023-04-02T06:19:38.429Z,20.75
2023-04-02T06:22:19.050Z,20.75
2023-04-02T06:24:47.365Z,20.75
2023-04-02T06:27:20.201Z,20.75
2023-04-02T06:29:48.726Z,20.74
2023-04-02T06:32:15.770Z,20.74
2023-04-02T06:34:43.004Z,20.75
2023-04-02T06:37:19.964Z,20.74
2023-04-02T06:39:46.715Z,20.75
2023-04-02T06:42:19.018Z,20.76
2023-04-02T06:44:46.240Z,20.77
2023-04-02T06:47:27.870Z,20.77
2023-04-02T06:50:07.035Z,20.77
2023-04-02T06:52:39.452Z,20.78
2023-04-02T06:55:17.836Z,20.78
2023-04-02T06:57:44.451Z,20.77
2023-04-02T07:00:34.990Z,20.76
2023-04-02T07:03:05.644Z,20.75
2023-04-02T07:05:32.069Z,20.76
2023-04-02T07:07:58.614Z,20.75
2023-04-02T07:10:25.142Z,20.75
2023-04-02T07:12:51.695Z,20.74
2023-04-02T07:15:23.934Z,20.74
2023-04-02T07:17:51.095Z,20.75
2023-04-02T07:20:37.669Z,20.77
2023-04-02T07:23:04.673Z,20.75
2023-04-02T07:25:31.268Z,20.76
2023-04-02T07:27:57.865Z,20.77
2023-04-02T07:30:24.501Z,20.77
2023-04-02T07:32:51.261Z,20.79
2023-04-02T07:35:17.850Z,20.79
2023-04-02T07:37:44.327Z,20.77
2023-04-02T07:40:19.257Z,20.78
2023-04-02T07:42:46.228Z,20.77
2023-04-02T07:45:13.790Z,20.79
2023-04-02T07:47:40.815Z,20.79
2023-04-02T07:50:08.379Z,20.79
2023-04-02T07:52:40.600Z,20.79
2023-04-02T07:55:07.871Z,20.78
2023-04-02T07:57:38.879Z,20.78
2023-04-02T08:00:07.454Z,20.79
2023-04-02T08:02:34.082Z,20.78
2023-04-02T08:05:01.267Z,20.79
2023-04-02T08:07:28.217Z,20.78
2023-04-02T08:09:54.712Z,20.79
2023-04-02T08:12:21.270Z,20.79
2023-04-02T08:14:47.738Z,20.79
2023-04-02T08:17:14.294Z,20.77
2023-04-02T08:19:53.762Z,20.78
2023-04-02T08:22:21.344Z,20.78
2023-04-02T08:24:47.905Z,20.77
2023-04-02T08:27:15.117Z,20.76
2023-04-02T08:29:41.642Z,20.77
2023-04-02T08:32:12.142Z,20.77
2023-04-02T08:34:38.644Z,20.77
2023-04-02T08:37:05.295Z,20.78
2023-04-02T08:39:33.202Z,20.79
2023-04-02T08:42:18.025Z,20.79
2023-04-02T08:45:23.693Z,20.79
2023-04-02T08:47:55.357Z,20.81
2023-04-02T08:50:31.036Z,20.83
2023-04-02T08:52:59.361Z,20.83
2023-04-02T08:55:42.920Z,20.83
2023-04-02T08:58:37.489Z,20.83
2023-04-02T09:01:07.266Z,20.83
2023-04-02T09:03:42.898Z,20.83
2023-04-02T09:06:16.032Z,20.81
2023-04-02T09:08:44.981Z,20.83
2023-04-02T09:11:24.716Z,20.83
2023-04-02T09:13:56.920Z,20.83
2023-04-02T09:16:42.151Z,20.83
2023-04-02T09:19:18.227Z,20.82
2023-04-02T09:22:06.505Z,20.82
2023-04-02T09:24:33.669Z,20.81
2023-04-02T09:27:00.592Z,20.81
2023-04-02T09:29:48.633Z,20.83
2023-04-02T09:32:37.408Z,20.82
2023-04-02T09:35:39.002Z,20.83
2023-04-02T09:38:23.816Z,20.83
2023-04-02T09:41:18.677Z,20.83
2023-04-02T09:43:45.179Z,20.83
2023-04-02T09:46:25.907Z,20.84
2023-04-02T09:49:01.221Z,20.85
2023-04-02T09:51:34.334Z,20.85
2023-04-02T09:54:03.990Z,20.88
2023-04-02T09:56:32.463Z,20.90
2023-04-02T09:59:06.174Z,20.94
2023-04-02T10:01:38.869Z,20.97
2023-04-02T10:04:26.590Z,21.00
2023-04-02T10:06:58.086Z,21.02
2023-04-02T10:09:33.896Z,21.05
2023-04-02T10:12:02.470Z,21.08
2023-04-02T10:14:36.640Z,21.13
2023-04-02T10:17:27.843Z,21.16
2023-04-02T10:19:59.878Z,21.17
2023-04-02T10:22:28.148Z,21.18
2023-04-02T10:24:54.889Z,21.18
2023-04-02T10:27:34.302Z,21.20
2023-04-02T10:30:09.461Z,21.21
2023-04-02T10:32:48.835Z,21.22
2023-04-02T10:35:35.781Z,21.21
2023-04-02T10:38:23.706Z,21.22
2023-04-02T10:41:07.895Z,21.21
2023-04-02T10:43:40.636Z,21.20
2023-04-02T10:46:16.358Z,21.21
2023-04-02T10:49:22.067Z,21.23
2023-04-02T10:52:00.234Z,21.24
2023-04-02T10:55:08.859Z,21.25
2023-04-02T10:57:40.497Z,21.26
2023-04-02T11:00:16.975Z,21.26
2023-04-02T11:03:12.521Z,21.27
2023-04-02T11:05:51.160Z,21.28
2023-04-02T11:08:28.083Z,21.29
2023-04-02T11:11:44.324Z,21.29
2023-04-02T11:14:26.234Z,21.31
2023-04-02T11:16:54.894Z,21.29
2023-04-02T11:19:25.359Z,21.30
2023-04-02T11:22:06.472Z,21.33
2023-04-02T11:24:38.814Z,21.34
2023-04-02T11:27:08.661Z,21.36
2023-04-02T11:29:37.031Z,21.37
2023-04-02T11:32:21.881Z,21.39
2023-04-02T11:35:06.574Z,21.38
2023-04-02T11:37:38.401Z,21.41
2023-04-02T11:40:08.202Z,21.41
2023-04-02T11:42:36.704Z,21.43
2023-04-02T11:45:52.912Z,21.42
2023-04-02T11:48:19.828Z,21.43
2023-04-02T11:50:46.778Z,21.44
2023-04-02T11:53:21.081Z,21.44
2023-04-02T11:55:56.825Z,21.44
2023-04-02T11:58:56.860Z,21.46
2023-04-02T12:01:32.426Z,21.48
2023-04-02T12:04:33.345Z,21.50
2023-04-02T12:07:26.832Z,21.51
2023-04-02T12:09:59.775Z,21.52
2023-04-02T12:12:39.540Z,21.53
2023-04-02T12:15:24.822Z,21.55
2023-04-02T12:17:51.443Z,21.54
2023-04-02T12:20:23.429Z,21.53
2023-04-02T12:22:54.145Z,21.55
2023-04-02T12:25:54.279Z,21.58
2023-04-02T12:28:22.374Z,21.61
2023-04-02T12:30:51.630Z,21.63
2023-04-02T12:33:27.939Z,21.65
2023-04-02T12:36:00.123Z,21.66
2023-04-02T12:38:30.857Z,21.67
2023-04-02T12:41:04.289Z,21.69
2023-04-02T12:43:37.637Z,21.71
2023-04-02T12:46:08.798Z,21.71
2023-04-02T12:48:36.397Z,21.70
2023-04-02T12:51:04.094Z,21.73
2023-04-02T12:53:39.396Z,21.76
2023-04-02T12:56:08.305Z,21.77
2023-04-02T12:58:41.106Z,21.77
2023-04-02T13:01:20.258Z,21.80
2023-04-02T13:04:19.370Z,21.83
2023-04-02T13:06:57.149Z,21.82
2023-04-02T13:09:44.858Z,21.83
2023-04-02T13:12:40.479Z,21.83
2023-04-02T13:15:29.030Z,21.84
2023-04-02T13:18:19.203Z,21.87
2023-04-02T13:20:58.971Z,21.89
2023-04-02T13:23:33.360Z,21.90
2023-04-02T13:26:09.930Z,21.91
2023-04-02T13:28:36.608Z,21.93
2023-04-02T13:31:03.191Z,21.95
2023-04-02T13:33:30.085Z,21.98
2023-04-02T13:35:56.608Z,21.99
2023-04-02T13:38:23.105Z,22.02
2023-04-02T13:40:49.570Z,22.02
2023-04-02T13:43:19.807Z,22.02
2023-04-02T13:45:53.190Z,22.03
2023-04-02T13:48:19.814Z,22.06
2023-04-02T13:50:46.824Z,22.09
2023-04-02T13:53:21.314Z,22.09
2023-04-02T13:55:48.279Z,22.12
2023-04-02T13:58:14.784Z,22.13
2023-04-02T14:00:41.641Z,22.14
2023-04-02T14:03:18.554Z,22.18
2023-04-02T14:05:57.476Z,22.20
2023-04-02T14:08:42.726Z,22.22
2023-04-02T14:11:18.868Z,22.24
2023-04-02T14:13:57.341Z,22.25
2023-04-02T14:16:42.200Z,22.26
2023-04-02T14:19:42.733Z,22.27
2023-04-02T14:22:50.783Z,22.28
2023-04-02T14:25:33.929Z,22.30
2023-04-02T14:28:29.869Z,22.28
2023-04-02T14:31:21.703Z,22.28
2023-04-02T14:34:02.264Z,22.32
2023-04-02T14:36:34.539Z,22.35
2023-04-02T14:39:10.033Z,22.34
2023-04-02T14:41:57.429Z,22.33
2023-04-02T14:44:28.848Z,22.36
2023-04-02T14:47:13.005Z,22.38
2023-04-02T14:49:43.109Z,22.41
2023-04-02T14:52:19.113Z,22.41
2023-04-02T14:54:52.275Z,22.44
2023-04-02T14:57:21.420Z,22.45
2023-04-02T14:59:59.548Z,22.47
2023-04-02T15:02:48.056Z,22.50
2023-04-02T15:05:21.207Z,22.50
2023-04-02T15:08:03.065Z,22.50
2023-04-02T15:10:39.240Z,22.52
2023-04-02T15:13:12.383Z,22.54
2023-04-02T15:15:48.015Z,22.52
2023-04-02T15:18:17.379Z,22.54
2023-04-02T15:21:16.670Z,22.58
2023-04-02T15:24:04.206Z,22.59
2023-04-02T15:26:58.350Z,22.61
2023-04-02T15:29:36.416Z,22.61
2023-04-02T15:32:22.992Z,22.62
2023-04-02T15:35:08.189Z,22.63
2023-04-02T15:37:43.465Z,22.65
2023-04-02T15:40:25.312Z,22.66
2023-04-02T15:43:27.620Z,22.69
2023-04-02T15:45:57.534Z,22.70
2023-04-02T15:48:48.311Z,22.70
2023-04-02T15:51:35.983Z,22.71
2023-04-02T15:54:17.589Z,22.71
2023-04-02T15:57:21.887Z,22.71
2023-04-02T15:59:54.228Z,22.74
2023-04-02T16:02:23.740Z,22.73
2023-04-02T16:04:56.441Z,22.75
2023-04-02T16:08:05.123Z,22.74
2023-04-02T16:10:42.473Z,22.74
2023-04-02T16:13:38.843Z,22.74
2023-04-02T16:16:08.557Z,22.74
2023-04-02T16:18:47.717Z,22.76
2023-04-02T16:21:38.550Z,22.76
2023-04-02T16:24:14.126Z,22.77
2023-04-02T16:27:16.667Z,22.76
2023-04-02T16:29:55.824Z,22.77
2023-04-02T16:32:35.909Z,22.77
2023-04-02T16:35:43.009Z,22.77
2023-04-02T16:38:54.796Z,22.77
2023-04-02T16:41:22.062Z,22.76
2023-04-02T16:44:25.581Z,22.77
2023-04-02T16:47:16.845Z,22.78
2023-04-02T16:50:19.787Z,22.79
2023-04-02T16:52:49.154Z,22.79
2023-04-02T16:55:32.915Z,22.79
2023-04-02T16:58:02.161Z,22.80
2023-04-02T17:00:37.947Z,22.80
2023-04-02T17:03:23.257Z,22.79
2023-04-02T17:05:55.571Z,22.78
2023-04-02T17:08:29.937Z,22.77
2023-04-02T17:11:07.896Z,22.77
2023-04-02T17:13:42.084Z,22.77
2023-04-02T17:16:08.668Z,22.76
2023-04-02T17:18:35.507Z,22.76
2023-04-02T17:21:08.675Z,22.76
2023-04-02T17:23:55.322Z,22.73
2023-04-02T17:26:28.918Z,22.73
2023-04-02T17:28:58.511Z,22.74
2023-04-02T17:31:30.645Z,22.73
2023-04-02T17:33:57.305Z,22.70
2023-04-02T17:36:38.176Z,22.70
2023-04-02T17:39:35.208Z,22.69
2023-04-02T17:42:16.042Z,22.66
2023-04-02T17:45:02.746Z,22.64
2023-04-02T17:47:48.009Z,22.63
2023-04-02T17:50:17.456Z,22.63
2023-04-02T17:53:21.695Z,22.62
2023-04-02T17:56:00.335Z,22.63
2023-04-02T17:58:48.841Z,22.62
2023-04-02T18:01:24.465Z,22.58
2023-04-02T18:04:04.893Z,22.57
2023-04-02T18:06:43.467Z,22.56
2023-04-02T18:09:37.254Z,22.57
2023-04-02T18:12:15.056Z,22.54
2023-04-02T18:15:16.426Z,22.55
2023-04-02T18:17:47.808Z,22.57
2023-04-02T18:20:44.735Z,22.52
2023-04-02T18:23:25.727Z,22.51
2023-04-02T18:25:57.804Z,22.52
2023-04-02T18:28:44.542Z,22.51
2023-04-02T18:31:24.783Z,22.51
2023-04-02T18:34:13.865Z,22.51
2023-04-02T18:36:52.253Z,22.50
2023-04-02T18:39:51.330Z,22.49
2023-04-02T18:42:51.762Z,22.48
2023-04-02T18:45:51.797Z,22.48
2023-04-02T18:48:36.565Z,22.50
2023-04-02T18:51:06.476Z,22.49
2023-04-02T18:53:33.647Z,22.50
2023-04-02T18:56:07.468Z,22.48
2023-04-02T18:58:57.171Z,22.45
2023-04-02T19:01:34.410Z,22.46
2023-04-02T19:04:06.029Z,22.46
2023-04-02T19:06:39.300Z,22.48
2023-04-02T19:09:16.707Z,22.47
2023-04-02T19:11:43.576Z,22.47
2023-04-02T19:14:17.512Z,22.47
2023-04-02T19:17:13.421Z,22.46
2023-04-02T19:19:46.231Z,22.46
2023-04-02T19:22:20.099Z,22.45
2023-04-02T19:25:08.104Z,22.46
2023-04-02T19:27:55.749Z,22.46
2023-04-02T19:30:38.616Z,22.46
2023-04-02T19:33:08.246Z,22.44
2023-04-02T19:36:03.836Z,22.44
2023-04-02T19:39:05.939Z,22.42
2023-04-02T19:41:49.734Z,22.40
2023-04-02T19:44:17.545Z,22.39
2023-04-02T19:46:44.755Z,22.38
2023-04-02T19:49:25.737Z,22.37
2023-04-02T19:51:53.617Z,22.36
2023-04-02T19:54:20.485Z,22.36
2023-04-02T19:56:47.239Z,22.37
2023-04-02T20:01:43.353Z,22.36
2023-04-02T20:04:09.988Z,22.34
2023-04-02T20:06:37.482Z,22.32
2023-04-02T20:09:04.038Z,22.32
2023-04-02T20:11:31.040Z,22.33
2023-04-02T20:13:57.552Z,22.35
2023-04-02T20:16:24.294Z,22.35
2023-04-02T20:18:51.361Z,22.33
2023-04-02T20:21:17.940Z,22.33
2023-04-02T20:23:44.921Z,22.35
2023-04-02T20:26:12.676Z,22.34
2023-04-02T20:28:39.637Z,22.35
2023-04-02T20:31:07.342Z,22.33
2023-04-02T20:33:34.000Z,22.32
2023-04-02T20:36:07.325Z,22.29
2023-04-02T20:38:35.135Z,22.28
2023-04-02T20:41:02.841Z,22.26
2023-04-02T20:43:29.521Z,22.24
2023-04-02T20:45:59.072Z,22.26
2023-04-02T20:48:27.520Z,22.24
2023-04-02T20:50:54.293Z,22.24
2023-04-02T20:53:20.899Z,22.23
2023-04-02T20:55:47.463Z,22.22
2023-04-02T20:58:16.204Z,22.22
2023-04-02T21:00:43.549Z,22.20
2023-04-02T21:03:11.212Z,22.19
2023-04-02T21:05:47.710Z,22.17
2023-04-02T21:08:14.551Z,22.16
2023-04-02T21:10:41.224Z,22.15
2023-04-02T21:13:07.802Z,22.15
2023-04-02T21:15:34.542Z,22.14
2023-04-02T21:18:01.412Z,22.13
2023-04-02T21:20:27.987Z,22.12
2023-04-02T21:22:54.546Z,22.11
2023-04-02T21:25:21.078Z,22.10
2023-04-02T21:27:47.616Z,22.11
2023-04-02T21:30:14.365Z,22.10
2023-04-02T21:32:40.995Z,22.09
2023-04-02T21:35:08.904Z,22.06
2023-04-02T21:37:35.705Z,22.07
2023-04-02T21:40:02.518Z,22.06
2023-04-02T21:42:29.117Z,22.04
2023-04-02T21:44:56.041Z,22.03
2023-04-02T21:47:23.519Z,22.02
2023-04-02T21:49:50.122Z,22.03
2023-04-02T21:52:16.731Z,22.01
2023-04-02T21:54:43.183Z,22.01
2023-04-02T21:57:09.771Z,22.00
2023-04-02T21:59:36.340Z,21.99
2023-04-02T22:02:02.982Z,21.98
2023-04-02T22:04:30.698Z,21.96
2023-04-02T22:06:57.685Z,21.97
2023-04-02T22:09:26.541Z,21.96
2023-04-02T22:11:59.006Z,21.95
2023-04-02T22:14:26.011Z,21.96
2023-04-02T22:16:52.544Z,21.94
2023-04-02T22:19:19.149Z,21.93
2023-04-02T22:21:46.299Z,21.93
2023-04-02T22:26:40.961Z,21.90
2023-04-02T22:29:08.141Z,21.88
2023-04-02T22:31:35.374Z,21.89
2023-04-02T22:34:04.368Z,21.87
2023-04-02T22:36:31.786Z,21.88
2023-04-02T22:39:01.062Z,21.87
2023-04-02T22:41:29.348Z,21.87
2023-04-02T22:43:56.815Z,21.86
2023-04-02T22:46:24.906Z,21.84
2023-04-02T22:48:51.645Z,21.83
2023-04-02T22:51:20.745Z,21.83
2023-04-02T22:53:48.289Z,21.83
2023-04-02T22:56:18.474Z,21.80
2023-04-02T22:58:45.994Z,21.80
2023-04-02T23:01:23.332Z,21.78
2023-04-02T23:03:50.136Z,21.77
2023-04-02T23:06:18.346Z,21.77
2023-04-02T23:08:45.563Z,21.78
2023-04-02T23:11:15.095Z,21.76
2023-04-02T23:13:42.574Z,21.75
2023-04-02T23:16:12.383Z,21.75
2023-04-02T23:18:40.578Z,21.74
2023-04-02T23:21:08.019Z,21.73
2023-04-02T23:23:35.184Z,21.73
2023-04-02T23:26:07.627Z,21.74
2023-04-02T23:28:35.314Z,21.72
2023-04-02T23:31:03.545Z,21.72
2023-04-02T23:33:30.295Z,21.72
2023-04-02T23:35:57.170Z,21.70
2023-04-02T23:38:24.423Z,21.69
2023-04-02T23:40:51.269Z,21.68
2023-04-02T23:43:18.006Z,21.68
2023-04-02T23:45:51.068Z,21.67
2023-04-02T23:48:17.991Z,21.67
2023-04-02T23:50:45.529Z,21.65
2023-04-02T23:53:13.213Z,21.65
2023-04-02T23:55:40.439Z,21.66
2023-04-02T23:58:07.272Z,21.64
